createdAt,value
2017-11-06T00:03:00.751Z,67.03
2017-11-06T00:05:39.832Z,67.32
2017-11-06T00:11:33.509Z,67.80
2017-11-06T00:14:04.955Z,67.79
2017-11-06T00:16:36.005Z,67.76
2017-11-06T00:19:08.979Z,67.72
2017-11-06T00:21:40.480Z,67.85
2017-11-06T00:24:20.736Z,67.82
2017-11-06T00:26:52.632Z,67.71
2017-11-06T00:29:38.272Z,67.58
2017-11-06T00:32:21.822Z,67.22
2017-11-06T00:34:52.990Z,67.42
2017-11-06T00:37:24.120Z,67.32
2017-11-06T00:39:55.227Z,67.45
2017-11-06T00:42:25.705Z,68.25
2017-11-06T00:44:59.631Z,68.43
2017-11-06T00:47:33.433Z,67.69
2017-11-06T00:50:04.092Z,67.50
2017-11-06T00:52:34.774Z,67.50
2017-11-06T00:55:12.135Z,67.33
2017-11-06T00:57:43.245Z,67.08
2017-11-06T01:00:34.125Z,66.72
2017-11-06T01:03:16.061Z,66.96
2017-11-06T01:05:56.506Z,67.72
2017-11-06T01:08:32.019Z,68.02
2017-11-06T01:11:05.299Z,68.57
2017-11-06T01:13:36.122Z,69.27
2017-11-06T01:16:15.086Z,69.41
2017-11-06T01:18:50.598Z,69.43
2017-11-06T01:21:25.582Z,69.33
2017-11-06T01:24:03.222Z,69.70
2017-11-06T01:26:38.939Z,69.98
2017-11-06T01:29:32.274Z,69.85
2017-11-06T01:32:14.503Z,69.87
2017-11-06T01:34:47.453Z,69.78
2017-11-06T01:37:30.146Z,69.06
2017-11-06T01:40:14.238Z,69.10
2017-11-06T01:42:45.878Z,68.85
2017-11-06T01:45:27.261Z,68.73
2017-11-06T01:47:57.915Z,68.86
2017-11-06T01:50:34.768Z,68.59
2017-11-06T01:53:21.374Z,68.07
2017-11-06T01:58:34.512Z,67.51
2017-11-06T02:01:05.925Z,66.95
2017-11-06T02:03:36.456Z,66.92
2017-11-06T02:06:18.116Z,67.26
2017-11-06T02:08:49.323Z,67.31
2017-11-06T02:11:20.001Z,67.35
2017-11-06T02:13:50.335Z,67.19
2017-11-06T02:16:21.071Z,67.04
2017-11-06T02:18:52.820Z,66.40
2017-11-06T02:21:26.290Z,67.04
2017-11-06T02:26:24.587Z,66.84
2017-11-06T02:28:55.030Z,66.82
2017-11-06T02:31:30.274Z,67.23
2017-11-06T02:34:12.172Z,66.90
2017-11-06T02:36:43.370Z,67.17
2017-11-06T02:39:15.438Z,67.02
2017-11-06T02:41:46.842Z,67.03
2017-11-06T02:44:19.260Z,67.34
2017-11-06T02:46:50.598Z,67.13
2017-11-06T02:49:22.408Z,67.17
2017-11-06T02:51:54.472Z,67.81
2017-11-06T02:54:25.276Z,67.29
2017-11-06T02:56:55.755Z,67.39
2017-11-06T02:59:28.941Z,67.27
2017-11-06T03:05:20.645Z,67.31
2017-11-06T03:07:51.820Z,67.10
2017-11-06T03:10:35.049Z,67.58
2017-11-06T03:13:06.735Z,67.16
2017-11-06T03:15:44.438Z,67.31
2017-11-06T03:18:16.444Z,67.26
2017-11-06T03:20:47.562Z,67.25
2017-11-06T03:23:18.301Z,67.02
2017-11-06T03:25:49.195Z,66.82
2017-11-06T03:28:19.967Z,67.66
2017-11-06T03:31:43.520Z,67.81
2017-11-06T03:34:34.968Z,67.63
2017-11-06T03:37:08.103Z,67.61
2017-11-06T03:39:40.653Z,67.83
2017-11-06T03:42:13.345Z,67.78
2017-11-06T03:44:44.036Z,68.21
2017-11-06T03:47:14.467Z,68.07
2017-11-06T03:49:44.938Z,67.96
2017-11-06T03:52:16.015Z,68.96
2017-11-06T03:54:47.021Z,68.33
2017-11-06T03:57:18.998Z,68.48
2017-11-06T03:59:52.008Z,68.41
2017-11-06T04:02:24.846Z,68.19
2017-11-06T04:04:56.587Z,68.23
2017-11-06T04:07:26.801Z,67.82
2017-11-06T04:09:59.799Z,67.45
2017-11-06T04:12:31.855Z,67.86
2017-11-06T04:15:07.537Z,68.25
2017-11-06T04:17:39.787Z,68.37
2017-11-06T04:22:18.285Z,67.95
2017-11-06T04:27:29.703Z,68.41
2017-11-06T04:30:00.939Z,68.71
2017-11-06T04:32:38.951Z,67.89
2017-11-06T04:35:18.532Z,68.19
2017-11-06T04:37:49.770Z,68.82
2017-11-06T04:40:21.829Z,68.46
2017-11-06T04:42:53.978Z,67.73
2017-11-06T04:45:25.137Z,67.51
2017-11-06T04:47:55.720Z,67.53
2017-11-06T04:50:28.074Z,67.49
2017-11-06T04:53:02.770Z,68.29
2017-11-06T04:55:38.376Z,68.44
2017-11-06T04:58:09.572Z,68.61
2017-11-06T05:00:40.327Z,68.53
2017-11-06T05:03:12.084Z,68.35
2017-11-06T05:05:43.835Z,69.59
2017-11-06T05:08:14.163Z,68.85
2017-11-06T05:10:44.502Z,68.91
2017-11-06T05:13:14.871Z,69.86
2017-11-06T05:15:45.565Z,68.95
2017-11-06T05:18:16.891Z,68.87
2017-11-06T05:20:47.621Z,69.04
2017-11-06T05:23:17.904Z,68.91
2017-11-06T05:25:49.001Z,68.70
2017-11-06T05:28:19.622Z,70.04
2017-11-06T05:30:50.715Z,69.61
2017-11-06T05:33:22.482Z,68.58
2017-11-06T05:35:53.378Z,68.07
2017-11-06T05:38:24.488Z,67.82
2017-11-06T05:40:56.136Z,68.17
2017-11-06T05:43:27.223Z,68.68
2017-11-06T05:46:04.735Z,68.82
2017-11-06T05:48:40.941Z,68.56
2017-11-06T05:51:12.694Z,68.44
2017-11-06T05:54:10.083Z,68.51
2017-11-06T05:56:40.677Z,68.51
2017-11-06T05:59:12.002Z,68.51
2017-11-06T06:01:43.215Z,69.29
2017-11-06T06:04:14.457Z,69.08
2017-11-06T06:06:46.247Z,68.75
2017-11-06T06:09:17.082Z,68.83
2017-11-06T06:11:47.977Z,69.20
2017-11-06T06:14:19.153Z,70.55
2017-11-06T06:16:49.938Z,71.74
2017-11-06T06:19:21.610Z,72.16
2017-11-06T06:21:52.990Z,71.76
2017-11-06T06:24:27.780Z,70.39
2017-11-06T06:29:36.045Z,69.36
2017-11-06T06:32:12.140Z,69.98
2017-11-06T06:34:45.257Z,71.71
2017-11-06T06:37:20.342Z,70.84
2017-11-06T06:39:55.313Z,71.40
2017-11-06T06:42:27.945Z,71.03
2017-11-06T06:44:58.450Z,70.50
2017-11-06T06:47:30.448Z,69.70
2017-11-06T06:50:03.197Z,69.54
2017-11-06T06:52:41.311Z,70.50
2017-11-06T06:55:13.672Z,70.23
2017-11-06T06:57:44.161Z,70.07
2017-11-06T07:00:24.303Z,69.76
2017-11-06T07:02:56.698Z,70.09
2017-11-06T07:05:27.863Z,69.49
2017-11-06T07:08:05.204Z,69.20
2017-11-06T07:10:39.432Z,70.01
2017-11-06T07:13:23.562Z,69.44
2017-11-06T07:28:27.129Z,70.03
2017-11-06T07:31:02.078Z,70.22
2017-11-06T07:33:36.463Z,69.54
2017-11-06T07:36:24.362Z,69.67
2017-11-06T07:38:56.846Z,69.37
2017-11-06T07:41:31.043Z,68.88
2017-11-06T07:44:32.531Z,68.77
2017-11-06T07:47:12.480Z,68.93
2017-11-06T07:49:49.853Z,69.28
2017-11-06T07:52:28.607Z,71.63
2017-11-06T07:57:56.260Z,73.70
2017-11-06T08:00:31.668Z,72.87
2017-11-06T08:03:23.970Z,72.23
2017-11-06T08:05:56.424Z,70.99
2017-11-06T08:10:58.202Z,68.85
2017-11-06T08:13:31.651Z,67.77
2017-11-06T08:16:04.830Z,66.78
2017-11-06T08:18:44.689Z,64.98
2017-11-06T08:21:17.599Z,64.45
2017-11-06T08:23:50.330Z,64.44
2017-11-06T08:26:21.402Z,63.33
2017-11-06T08:28:52.146Z,60.23
2017-11-06T08:31:27.546Z,59.51
2017-11-06T08:34:01.651Z,60.12
2017-11-06T08:36:33.369Z,61.17
2017-11-06T08:39:26.791Z,57.16
2017-11-06T08:41:58.614Z,55.01
2017-11-06T08:44:30.277Z,51.85
2017-11-06T08:49:50.682Z,54.11
2017-11-06T08:52:22.814Z,54.76
2017-11-06T08:54:55.082Z,55.05
2017-11-06T08:57:26.140Z,55.06
2017-11-06T08:59:57.023Z,53.28
2017-11-06T09:02:29.849Z,54.10
2017-11-06T09:05:00.331Z,54.26
2017-11-06T09:07:32.004Z,56.30
2017-11-06T09:10:03.184Z,56.79
2017-11-06T09:12:34.904Z,55.77
2017-11-06T09:16:00.011Z,56.40
2017-11-06T09:18:33.630Z,53.84
2017-11-06T09:21:05.431Z,52.23
2017-11-06T09:23:39.696Z,52.85
2017-11-06T09:26:27.515Z,54.08
2017-11-06T09:31:42.146Z,54.21
2017-11-06T09:34:23.812Z,53.05
2017-11-06T09:36:56.999Z,53.48
2017-11-06T09:39:31.121Z,53.43
2017-11-06T09:42:03.893Z,48.82
2017-11-06T09:44:34.836Z,45.40
2017-11-06T09:47:19.375Z,45.68
2017-11-06T09:49:56.866Z,45.04
2017-11-06T09:52:31.119Z,44.66
2017-11-06T09:55:01.588Z,42.76
2017-11-06T09:57:33.151Z,43.32
2017-11-06T10:00:10.058Z,42.36
2017-11-06T10:02:41.636Z,44.10
2017-11-06T10:05:29.482Z,41.61
2017-11-06T10:08:06.868Z,41.28
2017-11-06T10:10:51.206Z,41.06
2017-11-06T10:13:40.256Z,38.58
2017-11-06T10:16:19.683Z,37.28
2017-11-06T10:18:52.538Z,39.35
2017-11-06T10:21:26.412Z,39.12
2017-11-06T10:23:57.480Z,38.33
2017-11-06T10:26:28.039Z,36.41
2017-11-06T10:28:58.986Z,36.76
2017-11-06T10:31:33.442Z,36.97
2017-11-06T10:34:06.456Z,36.47
2017-11-06T10:36:41.302Z,37.50
2017-11-06T10:39:14.132Z,36.63
2017-11-06T10:41:49.051Z,35.73
2017-11-06T10:44:32.325Z,34.81
2017-11-06T10:49:54.520Z,35.75
2017-11-06T10:52:26.621Z,35.07
2017-11-06T10:54:57.782Z,34.21
2017-11-06T11:00:39.060Z,33.99
2017-11-06T11:06:21.050Z,34.87
2017-11-06T11:08:57.632Z,35.12
2017-11-06T11:11:28.837Z,36.94
2017-11-06T11:14:00.696Z,37.33
2017-11-06T11:16:33.724Z,38.62
2017-11-06T11:19:06.684Z,39.55
2017-11-06T11:21:41.467Z,40.30
2017-11-06T11:37:19.937Z,42.51
2017-11-06T11:39:54.161Z,43.11
2017-11-06T11:45:21.581Z,44.04
2017-11-06T11:47:53.278Z,44.00
2017-11-06T11:50:26.533Z,43.67
2017-11-06T11:53:01.959Z,43.58
2017-11-06T11:55:32.470Z,44.22
2017-11-06T12:00:57.241Z,44.65
2017-11-06T12:03:30.007Z,44.61
2017-11-06T12:06:11.677Z,44.44
2017-11-06T12:08:48.660Z,44.44
2017-11-06T12:11:20.903Z,44.40
2017-11-06T12:19:49.305Z,45.93
2017-11-06T12:22:20.379Z,46.31
2017-11-06T12:24:52.669Z,46.45
2017-11-06T12:27:32.302Z,46.00
2017-11-06T12:30:15.057Z,45.76
2017-11-06T12:32:45.896Z,46.17
2017-11-06T12:35:17.424Z,46.04
2017-11-06T12:37:48.884Z,46.19
2017-11-06T12:40:21.523Z,46.76
2017-11-06T12:42:51.925Z,46.41
2017-11-06T12:45:38.169Z,46.14
2017-11-06T12:48:23.736Z,45.24
2017-11-06T12:51:01.455Z,45.66
2017-11-06T12:53:42.581Z,45.52
2017-11-06T12:56:22.644Z,46.00
2017-11-06T12:58:53.983Z,46.73
2017-11-06T13:01:26.268Z,47.32
2017-11-06T13:03:57.777Z,46.56
2017-11-06T13:06:38.063Z,47.48
2017-11-06T13:09:09.001Z,47.87
2017-11-06T13:11:40.322Z,47.94
2017-11-06T13:14:33.904Z,48.02
2017-11-06T13:17:09.100Z,48.27
2017-11-06T13:19:46.272Z,49.06
2017-11-06T13:22:20.080Z,48.92
2017-11-06T13:24:51.174Z,48.67
2017-11-06T13:27:23.868Z,48.86
2017-11-06T13:30:07.479Z,49.57
2017-11-06T13:32:43.135Z,49.72
2017-11-06T13:35:14.329Z,49.48
2017-11-06T13:37:44.995Z,49.30
2017-11-06T13:40:17.907Z,48.91
2017-11-06T13:42:48.945Z,48.43
2017-11-06T13:45:19.978Z,48.08
2017-11-06T13:47:59.681Z,47.75
2017-11-06T13:50:39.569Z,47.78
2017-11-06T13:53:19.886Z,48.10
2017-11-06T13:55:51.402Z,48.58
2017-11-06T13:58:23.869Z,48.79
2017-11-06T14:00:59.796Z,48.76
2017-11-06T14:03:34.810Z,49.09
2017-11-06T14:06:07.346Z,51.37
2017-11-06T14:08:42.569Z,51.38
2017-11-06T14:11:14.648Z,51.56
2017-11-06T14:13:45.103Z,51.37
2017-11-06T14:16:15.729Z,51.14
2017-11-06T14:18:47.024Z,51.21
2017-11-06T14:21:17.896Z,51.81
2017-11-06T14:23:48.711Z,53.23
2017-11-06T14:26:21.421Z,52.36
2017-11-06T14:28:59.672Z,52.08
2017-11-06T14:31:37.374Z,52.38
2017-11-06T14:34:08.236Z,53.61
2017-11-06T14:36:38.806Z,53.47
2017-11-06T14:39:12.836Z,53.03
2017-11-06T14:41:44.508Z,52.96
2017-11-06T14:44:21.568Z,52.45
2017-11-06T14:49:57.855Z,51.56
2017-11-06T14:52:31.737Z,51.22
2017-11-06T14:55:02.468Z,51.33
2017-11-06T14:57:33.822Z,51.34
2017-11-06T15:00:23.635Z,51.48
2017-11-06T15:02:54.802Z,51.12
2017-11-06T15:05:25.823Z,51.08
2017-11-06T15:07:57.566Z,51.08
2017-11-06T15:10:30.339Z,51.37
2017-11-06T15:13:04.769Z,51.40
2017-11-06T15:15:56.624Z,51.57
2017-11-06T15:18:29.721Z,51.87
2017-11-06T15:21:25.507Z,52.17
2017-11-06T15:23:57.793Z,52.39
2017-11-06T15:26:29.476Z,52.68
2017-11-06T15:29:08.016Z,52.81
2017-11-06T15:31:41.913Z,52.79
2017-11-06T15:34:12.638Z,52.66
2017-11-06T15:36:44.039Z,52.62
2017-11-06T15:39:16.221Z,52.88
2017-11-06T15:41:47.524Z,53.13
2017-11-06T15:44:22.783Z,52.74
2017-11-06T15:47:07.082Z,52.74
2017-11-06T15:49:38.983Z,52.82
2017-11-06T15:52:13.085Z,52.88
2017-11-06T15:54:45.850Z,52.73
2017-11-06T15:57:22.911Z,52.90
2017-11-06T15:59:58.804Z,53.09
2017-11-06T16:02:37.692Z,53.23
2017-11-06T16:05:08.848Z,53.21
2017-11-06T16:07:40.808Z,53.43
2017-11-06T16:10:23.814Z,53.50
2017-11-06T16:12:56.145Z,53.74
2017-11-06T16:15:38.635Z,54.25
2017-11-06T16:18:11.756Z,55.22
2017-11-06T16:20:45.116Z,55.62
2017-11-06T16:23:22.862Z,56.56
2017-11-06T16:25:55.299Z,57.20
2017-11-06T16:28:52.614Z,57.49
2017-11-06T16:34:30.832Z,57.93
2017-11-06T16:37:04.432Z,59.03
2017-11-06T16:39:36.370Z,58.92
2017-11-06T16:42:17.567Z,59.38
2017-11-06T16:47:30.990Z,59.12
2017-11-06T16:50:06.299Z,59.17
2017-11-06T16:52:38.205Z,59.20
2017-11-06T16:55:24.300Z,59.36
2017-11-06T16:58:00.156Z,59.84
2017-11-06T17:00:39.363Z,60.03
2017-11-06T17:03:13.243Z,60.04
2017-11-06T17:05:49.578Z,60.30
2017-11-06T17:08:25.845Z,60.10
2017-11-06T17:11:08.571Z,59.93
2017-11-06T17:13:59.861Z,60.02
2017-11-06T17:19:36.173Z,60.58
2017-11-06T17:22:22.051Z,60.78
2017-11-06T17:24:58.537Z,60.69
2017-11-06T17:30:36.748Z,61.45
2017-11-06T17:33:15.969Z,61.33
2017-11-06T17:36:08.003Z,61.34
2017-11-06T17:39:18.954Z,62.49
2017-11-06T17:41:58.001Z,63.45
2017-11-06T17:47:51.175Z,63.61
2017-11-06T17:50:28.389Z,63.46
2017-11-06T17:53:04.680Z,63.66
2017-11-06T17:55:50.099Z,63.91
2017-11-06T17:58:24.041Z,64.21
2017-11-06T18:01:20.589Z,64.41
2017-11-06T18:03:54.815Z,64.05
2017-11-06T18:06:29.271Z,64.39
2017-11-06T18:09:02.203Z,64.00
2017-11-06T18:11:36.555Z,63.71
2017-11-06T18:14:25.964Z,63.86
2017-11-06T18:17:07.701Z,64.33
2017-11-06T18:19:45.380Z,64.94
2017-11-06T18:22:22.262Z,65.40
2017-11-06T18:24:58.219Z,65.90
2017-11-06T18:27:36.748Z,65.93
2017-11-06T18:30:33.958Z,65.45
2017-11-06T18:33:19.549Z,65.17
2017-11-06T18:35:59.015Z,64.88
2017-11-06T18:38:33.930Z,65.19
2017-11-06T18:41:11.005Z,65.50
2017-11-06T18:43:45.526Z,65.66
2017-11-06T18:46:18.934Z,65.29
2017-11-06T18:48:53.041Z,65.09
2017-11-06T18:51:29.894Z,64.84
2017-11-06T18:54:03.140Z,64.98
2017-11-06T18:56:40.343Z,64.87
2017-11-06T18:59:16.974Z,64.97
2017-11-06T19:01:51.485Z,65.11
2017-11-06T19:04:26.347Z,65.05
2017-11-06T19:07:02.961Z,65.28
2017-11-06T19:09:46.377Z,64.93
2017-11-06T19:12:29.531Z,64.93
2017-11-06T19:15:24.431Z,65.00
2017-11-06T19:18:03.964Z,64.81
2017-11-06T19:20:42.444Z,65.21
2017-11-06T19:23:17.934Z,65.08
2017-11-06T19:25:57.590Z,64.97
2017-11-06T19:28:33.911Z,65.01
2017-11-06T19:31:09.023Z,65.25
2017-11-06T19:33:43.040Z,65.72
2017-11-06T19:36:17.763Z,65.93
2017-11-06T19:38:53.877Z,65.92
2017-11-06T19:41:30.500Z,65.86
2017-11-06T19:46:55.747Z,66.70
2017-11-06T19:49:35.779Z,66.80
2017-11-06T19:52:16.583Z,67.80
2017-11-06T19:55:05.336Z,67.89
2017-11-06T19:57:42.772Z,68.10
2017-11-06T20:00:27.571Z,67.63
2017-11-06T20:03:04.881Z,67.33
2017-11-06T20:05:45.478Z,67.34
2017-11-06T20:08:27.555Z,68.40
2017-11-06T20:11:06.738Z,67.92
2017-11-06T20:13:42.572Z,67.49
2017-11-06T20:16:24.308Z,66.93
2017-11-06T20:19:03.023Z,66.85
2017-11-06T20:21:41.978Z,66.57
2017-11-06T20:24:20.046Z,66.66
2017-11-06T20:26:52.801Z,66.72
2017-11-06T20:29:27.187Z,66.63
2017-11-06T20:34:48.903Z,66.75
2017-11-06T20:37:24.716Z,67.40
2017-11-06T20:39:59.769Z,67.82
2017-11-06T20:42:33.935Z,67.77
2017-11-06T20:45:25.318Z,67.48
2017-11-06T20:48:05.641Z,66.99
2017-11-06T20:50:40.872Z,66.60
2017-11-06T20:53:16.029Z,66.72
2017-11-06T20:55:58.754Z,66.43
2017-11-06T20:58:37.680Z,66.16
2017-11-06T21:01:24.979Z,66.09
2017-11-06T21:04:08.245Z,66.45
2017-11-06T21:06:42.138Z,66.62
2017-11-06T21:09:24.135Z,66.25
2017-11-06T21:12:14.511Z,66.03
2017-11-06T21:14:50.211Z,65.85
2017-11-06T21:17:35.243Z,65.75
2017-11-06T21:20:10.051Z,65.70
2017-11-06T21:22:47.751Z,65.73
2017-11-06T21:25:28.956Z,66.30
2017-11-06T21:28:18.076Z,66.17
2017-11-06T21:33:39.916Z,65.92
2017-11-06T21:39:11.423Z,66.22
2017-11-06T21:44:35.574Z,67.12
2017-11-06T21:47:14.541Z,66.84
2017-11-06T21:49:56.064Z,67.17
2017-11-06T21:52:30.206Z,67.53
2017-11-06T21:55:04.956Z,67.54
2017-11-06T21:57:50.248Z,68.25
2017-11-06T22:00:36.303Z,68.49
2017-11-06T22:03:20.927Z,68.20
2017-11-06T22:05:53.952Z,67.49
2017-11-06T22:08:28.075Z,67.08
2017-11-06T22:11:02.057Z,66.84
2017-11-06T22:13:34.997Z,66.55
2017-11-06T22:16:07.463Z,66.33
2017-11-06T22:18:41.906Z,66.36
2017-11-06T22:21:21.583Z,66.22
2017-11-06T22:23:59.090Z,65.83
2017-11-06T22:26:31.594Z,65.67
2017-11-06T22:29:03.651Z,65.48
2017-11-06T22:31:36.824Z,65.28
2017-11-06T22:34:28.659Z,65.18
2017-11-06T22:37:05.548Z,65.21
2017-11-06T22:39:45.642Z,65.25
2017-11-06T22:42:18.833Z,65.02
2017-11-06T22:44:54.451Z,65.04
2017-11-06T22:47:35.650Z,64.82
2017-11-06T22:52:56.605Z,65.07
2017-11-06T22:55:30.490Z,64.78
2017-11-06T22:58:04.116Z,65.05
2017-11-06T23:06:57.433Z,65.98
2017-11-06T23:09:34.199Z,65.79
2017-11-06T23:12:05.814Z,65.58
2017-11-06T23:14:37.223Z,65.57
2017-11-06T23:17:21.139Z,66.66
2017-11-06T23:19:55.333Z,67.42
2017-11-06T23:22:26.129Z,66.74
2017-11-06T23:24:58.867Z,66.67
2017-11-06T23:27:34.273Z,66.11
2017-11-06T23:32:45.981Z,65.60
2017-11-06T23:35:21.184Z,65.80
2017-11-06T23:37:56.667Z,66.09
2017-11-06T23:40:29.618Z,65.74
2017-11-06T23:43:01.590Z,65.83
2017-11-06T23:45:43.460Z,65.97
2017-11-06T23:48:20.532Z,66.74
2017-11-06T23:50:54.847Z,66.99
2017-11-06T23:53:32.965Z,66.71
2017-11-06T23:56:06.102Z,66.76
2017-11-06T23:58:46.404Z,66.05
